createdAt,value
2022-08-30T00:00:40.973Z,83.65
2022-08-30T00:03:11.713Z,83.31
2022-08-30T00:05:41.850Z,83.26
2022-08-30T00:08:11.664Z,83.93
2022-08-30T00:10:41.381Z,84.18
2022-08-30T00:13:12.113Z,84.25
2022-08-30T00:15:40.409Z,84.54
2022-08-30T00:18:09.069Z,84.50
2022-08-30T00:20:38.005Z,84.05
2022-08-30T00:23:07.658Z,84.17
2022-08-30T00:25:35.764Z,83.96
2022-08-30T00:28:04.242Z,84.63
2022-08-30T00:30:32.477Z,84.36
2022-08-30T00:33:00.487Z,85.57
2022-08-30T00:35:28.636Z,85.70
2022-08-30T00:37:56.608Z,85.74
2022-08-30T00:40:28.531Z,86.99
2022-08-30T00:42:59.658Z,87.23
2022-08-30T00:45:32.984Z,85.59
2022-08-30T00:48:01.760Z,84.66
2022-08-30T00:50:32.341Z,85.02
2022-08-30T00:53:03.156Z,85.18
2022-08-30T00:55:33.236Z,85.24
2022-08-30T00:58:06.830Z,85.06
2022-08-30T01:00:35.283Z,85.31
2022-08-30T01:03:03.705Z,85.86
2022-08-30T01:05:32.031Z,86.01
2022-08-30T01:07:59.991Z,86.81
2022-08-30T01:10:27.887Z,87.42
2022-08-30T01:12:57.275Z,86.00
2022-08-30T01:15:25.819Z,85.84
2022-08-30T01:17:56.483Z,85.24
2022-08-30T01:20:31.072Z,85.52
2022-08-30T01:23:14.930Z,85.80
2022-08-30T01:25:46.130Z,86.64
2022-08-30T01:28:17.024Z,86.11
2022-08-30T01:30:45.271Z,86.26
2022-08-30T01:33:13.579Z,86.04
2022-08-30T01:35:48.804Z,86.57
2022-08-30T01:38:19.538Z,86.56
2022-08-30T01:40:48.527Z,85.92
2022-08-30T01:43:18.044Z,86.47
2022-08-30T01:45:46.097Z,86.83
2022-08-30T01:48:14.312Z,86.84
2022-08-30T01:50:44.845Z,86.60
2022-08-30T01:53:13.417Z,85.89
2022-08-30T01:55:43.117Z,86.31
2022-08-30T01:58:11.796Z,86.01
2022-08-30T02:00:40.437Z,85.95
2022-08-30T02:03:08.618Z,87.03
2022-08-30T02:05:37.036Z,86.46
2022-08-30T02:08:05.233Z,86.74
2022-08-30T02:10:33.534Z,86.96
2022-08-30T02:13:03.197Z,86.91
2022-08-30T02:15:31.425Z,86.87
2022-08-30T02:18:10.721Z,88.55
2022-08-30T02:20:40.296Z,88.89
2022-08-30T02:23:08.165Z,89.13
2022-08-30T02:25:36.260Z,88.18
2022-08-30T02:28:06.048Z,88.72
2022-08-30T02:30:34.587Z,87.58
2022-08-30T02:33:02.648Z,87.69
2022-08-30T02:35:30.610Z,87.10
2022-08-30T02:37:58.702Z,86.86
2022-08-30T02:40:26.738Z,86.32
2022-08-30T02:42:54.717Z,86.13
2022-08-30T02:45:24.472Z,86.63
2022-08-30T02:47:52.561Z,87.19
2022-08-30T02:50:20.868Z,87.55
2022-08-30T02:52:48.904Z,88.98
2022-08-30T02:55:17.694Z,88.22
2022-08-30T02:57:45.673Z,87.72
2022-08-30T03:00:17.543Z,87.58
2022-08-30T03:02:46.840Z,87.64
2022-08-30T03:05:16.519Z,87.86
2022-08-30T03:07:45.636Z,87.89
2022-08-30T03:10:14.537Z,87.05
2022-08-30T03:12:42.527Z,88.09
2022-08-30T03:15:12.569Z,87.17
2022-08-30T03:17:40.627Z,87.30
2022-08-30T03:20:11.997Z,87.72
2022-08-30T03:22:40.599Z,87.50
2022-08-30T03:25:09.604Z,86.79
2022-08-30T03:27:37.748Z,87.29
2022-08-30T03:30:07.096Z,86.78
2022-08-30T03:32:35.075Z,87.14
2022-08-30T03:35:03.015Z,87.23
2022-08-30T03:37:32.397Z,87.14
2022-08-30T03:40:00.454Z,87.29
2022-08-30T03:42:28.502Z,87.37
2022-08-30T03:44:56.801Z,87.52
2022-08-30T03:47:24.705Z,88.08
2022-08-30T03:49:52.616Z,86.62
2022-08-30T03:52:20.514Z,87.34
2022-08-30T03:54:49.832Z,87.50
2022-08-30T03:57:19.731Z,88.42
2022-08-30T03:59:48.435Z,88.37
2022-08-30T04:02:16.422Z,88.99
2022-08-30T04:04:44.404Z,88.88
2022-08-30T04:07:12.756Z,87.60
2022-08-30T04:09:41.005Z,87.08
2022-08-30T04:12:10.358Z,87.21
2022-08-30T04:14:38.276Z,87.23
2022-08-30T04:17:06.211Z,88.25
2022-08-30T04:19:34.178Z,87.63
2022-08-30T04:22:02.086Z,87.75
2022-08-30T04:24:30.014Z,87.91
2022-08-30T04:26:57.913Z,87.37
2022-08-30T04:29:27.296Z,87.41
2022-08-30T04:31:55.248Z,87.40
2022-08-30T04:34:23.774Z,87.84
2022-08-30T04:36:51.749Z,87.68
2022-08-30T04:39:20.308Z,87.76
2022-08-30T04:41:48.510Z,87.49
2022-08-30T04:44:19.387Z,87.44
2022-08-30T04:46:49.388Z,88.15
2022-08-30T04:49:17.344Z,89.14
2022-08-30T04:51:45.293Z,88.64
2022-08-30T04:54:13.442Z,87.84
2022-08-30T04:56:41.604Z,87.19
2022-08-30T04:59:09.595Z,88.26
2022-08-30T05:01:45.300Z,88.52
2022-08-30T05:04:16.119Z,89.07
2022-08-30T05:06:44.304Z,89.08
2022-08-30T05:09:13.035Z,88.92
2022-08-30T05:11:43.196Z,88.30
2022-08-30T05:14:11.140Z,87.79
2022-08-30T05:16:39.154Z,88.07
2022-08-30T05:19:07.888Z,88.75
2022-08-30T05:21:37.265Z,87.52
2022-08-30T05:24:05.318Z,86.30
2022-08-30T05:26:35.526Z,87.02
2022-08-30T05:29:03.589Z,87.18
2022-08-30T05:31:35.011Z,85.43
2022-08-30T05:34:03.743Z,87.49
2022-08-30T05:36:33.352Z,86.39
2022-08-30T05:39:02.814Z,86.50
2022-08-30T05:41:34.321Z,86.08
2022-08-30T05:44:06.920Z,88.02
2022-08-30T05:46:35.593Z,88.70
2022-08-30T05:49:05.199Z,88.57
2022-08-30T05:51:35.854Z,88.07
2022-08-30T05:54:10.689Z,87.10
2022-08-30T05:56:40.227Z,86.15
2022-08-30T05:59:09.366Z,85.35
2022-08-30T06:01:39.784Z,86.65
2022-08-30T06:04:10.178Z,85.47
2022-08-30T06:06:40.549Z,85.72
2022-08-30T06:09:11.861Z,85.04
2022-08-30T06:11:40.050Z,85.03
2022-08-30T06:14:08.215Z,87.16
2022-08-30T06:16:38.752Z,87.37
2022-08-30T06:19:08.371Z,85.06
2022-08-30T06:21:37.615Z,84.44
2022-08-30T06:24:07.952Z,84.86
2022-08-30T06:26:41.333Z,86.39
2022-08-30T06:29:10.122Z,84.94
2022-08-30T06:31:38.449Z,84.18
2022-08-30T06:34:06.884Z,85.00
2022-08-30T06:36:34.921Z,86.93
2022-08-30T06:39:03.681Z,86.88
2022-08-30T06:41:33.947Z,86.06
2022-08-30T06:44:05.905Z,85.83
2022-08-30T06:46:36.740Z,84.44
2022-08-30T06:49:06.863Z,83.80
2022-08-30T06:51:37.276Z,84.26
2022-08-30T06:54:10.796Z,82.04
2022-08-30T06:56:48.696Z,82.79
2022-08-30T06:59:27.794Z,83.58
2022-08-30T07:01:56.336Z,81.07
2022-08-30T07:04:24.462Z,80.54
2022-08-30T07:06:53.248Z,80.25
2022-08-30T07:09:22.992Z,81.11
2022-08-30T07:11:52.577Z,82.51
2022-08-30T07:14:20.494Z,82.54
2022-08-30T07:16:51.072Z,82.10
2022-08-30T07:19:21.016Z,81.15
2022-08-30T07:21:50.415Z,80.74
2022-08-30T07:24:18.913Z,84.03
2022-08-30T07:26:49.910Z,80.68
2022-08-30T07:29:19.039Z,79.43
2022-08-30T07:31:48.053Z,79.27
2022-08-30T07:34:19.272Z,79.22
2022-08-30T07:36:48.516Z,77.24
2022-08-30T07:39:16.447Z,76.73
2022-08-30T07:41:44.427Z,78.26
2022-08-30T07:44:13.554Z,78.68
2022-08-30T07:46:42.629Z,78.35
2022-08-30T07:49:13.033Z,77.52
2022-08-30T07:51:43.121Z,78.86
2022-08-30T07:54:11.013Z,78.47
2022-08-30T07:56:39.021Z,75.39
2022-08-30T07:59:06.972Z,75.73
2022-08-30T08:01:34.923Z,77.45
2022-08-30T08:04:03.399Z,77.21
2022-08-30T08:06:35.028Z,75.97
2022-08-30T08:09:05.131Z,76.20
2022-08-30T08:11:34.777Z,75.71
2022-08-30T08:14:03.407Z,74.26
2022-08-30T08:16:36.076Z,72.14
2022-08-30T08:19:08.727Z,71.92
2022-08-30T08:21:38.347Z,70.11
2022-08-30T08:24:09.054Z,70.60
2022-08-30T08:26:38.156Z,71.65
2022-08-30T08:29:10.818Z,70.56
2022-08-30T08:31:39.313Z,72.77
2022-08-30T08:34:07.316Z,72.23
2022-08-30T08:36:36.258Z,70.41
2022-08-30T08:39:07.765Z,69.98
2022-08-30T08:41:50.921Z,70.09
2022-08-30T08:44:43.392Z,69.94
2022-08-30T08:47:15.092Z,71.32
2022-08-30T08:49:47.086Z,67.91
2022-08-30T08:52:40.668Z,68.77
2022-08-30T08:55:12.994Z,65.81
2022-08-30T08:57:41.759Z,67.43
2022-08-30T09:00:12.496Z,66.19
2022-08-30T09:02:44.541Z,66.67
2022-08-30T09:05:16.400Z,65.73
2022-08-30T09:07:50.120Z,70.56
2022-08-30T09:10:29.950Z,67.53
2022-08-30T09:13:07.733Z,69.08
2022-08-30T09:15:41.429Z,69.11
2022-08-30T09:18:19.260Z,68.19
2022-08-30T09:20:49.988Z,70.56
2022-08-30T09:23:28.700Z,69.11
2022-08-30T09:26:00.779Z,71.42
2022-08-30T09:28:31.372Z,70.82
2022-08-30T09:31:03.739Z,69.92
2022-08-30T09:33:32.205Z,69.16
2022-08-30T09:36:20.140Z,67.88
2022-08-30T09:39:00.765Z,66.93
2022-08-30T09:41:37.637Z,67.12
2022-08-30T09:44:09.771Z,64.46
2022-08-30T09:46:48.810Z,66.78
2022-08-30T09:49:30.940Z,65.65
2022-08-30T09:52:23.368Z,64.09
2022-08-30T09:55:04.740Z,65.19
2022-08-30T09:57:44.849Z,66.37
2022-08-30T10:00:18.545Z,64.46
2022-08-30T10:03:04.555Z,64.28
2022-08-30T10:05:41.683Z,63.33
2022-08-30T10:08:19.060Z,65.38
2022-08-30T10:10:53.607Z,62.69
2022-08-30T10:13:57.456Z,61.28
2022-08-30T10:16:42.853Z,59.69
2022-08-30T10:19:29.609Z,61.01
2022-08-30T10:22:04.285Z,59.34
2022-08-30T10:24:36.828Z,58.13
2022-08-30T10:27:09.697Z,60.99
2022-08-30T10:29:44.300Z,59.96
2022-08-30T10:32:21.353Z,61.17
2022-08-30T10:34:55.665Z,61.13
2022-08-30T10:37:27.238Z,57.36
2022-08-30T10:40:00.666Z,56.87
2022-08-30T10:42:39.372Z,57.16
2022-08-30T10:45:13.518Z,56.19
2022-08-30T10:47:50.717Z,55.48
2022-08-30T10:50:25.358Z,54.80
2022-08-30T10:52:58.167Z,56.49
2022-08-30T10:55:30.968Z,56.37
2022-08-30T10:58:01.452Z,57.22
2022-08-30T11:00:31.549Z,55.61
2022-08-30T11:03:39.771Z,57.24
2022-08-30T11:06:17.358Z,52.80
2022-08-30T11:09:09.713Z,56.15
2022-08-30T11:11:51.913Z,54.26
2022-08-30T11:14:21.170Z,50.72
2022-08-30T11:16:57.744Z,52.46
2022-08-30T11:19:32.118Z,50.63
2022-08-30T11:22:13.941Z,52.76
2022-08-30T11:25:10.017Z,51.55
2022-08-30T11:27:51.485Z,51.79
2022-08-30T11:30:51.413Z,49.58
2022-08-30T11:33:31.773Z,48.10
2022-08-30T11:36:01.590Z,49.30
2022-08-30T11:39:01.305Z,50.30
2022-08-30T11:41:40.835Z,52.35
2022-08-30T11:44:26.519Z,52.31
2022-08-30T11:46:56.457Z,50.15
2022-08-30T11:49:37.533Z,51.65
2022-08-30T11:52:27.685Z,52.77
2022-08-30T11:55:12.933Z,51.72
2022-08-30T11:57:50.029Z,53.59
2022-08-30T12:00:30.400Z,52.88
2022-08-30T12:03:02.044Z,50.79
2022-08-30T12:05:54.129Z,51.85
2022-08-30T12:08:59.521Z,52.60
2022-08-30T12:11:56.771Z,50.42
2022-08-30T12:14:48.780Z,50.30
2022-08-30T12:17:41.512Z,47.72
2022-08-30T12:20:27.237Z,49.02
2022-08-30T12:22:56.714Z,49.56
2022-08-30T12:25:30.675Z,49.36
2022-08-30T12:28:14.006Z,50.11
2022-08-30T12:30:42.762Z,50.46
2022-08-30T12:33:24.202Z,47.76
2022-08-30T12:35:59.490Z,47.55
2022-08-30T12:38:28.347Z,46.43
2022-08-30T12:41:00.239Z,49.73
2022-08-30T12:43:40.703Z,48.80
2022-08-30T12:46:15.317Z,49.03
2022-08-30T12:48:46.102Z,49.07
2022-08-30T12:51:29.693Z,52.72
2022-08-30T12:54:07.123Z,51.81
2022-08-30T12:56:53.678Z,51.67
2022-08-30T12:59:47.372Z,52.96
2022-08-30T13:02:24.043Z,54.35
2022-08-30T13:04:54.298Z,53.04
2022-08-30T13:07:28.593Z,50.77
2022-08-30T13:10:20.507Z,49.85
2022-08-30T13:13:04.825Z,53.67
2022-08-30T13:15:35.821Z,53.27
2022-08-30T13:18:26.687Z,50.95
2022-08-30T13:21:20.190Z,49.32
2022-08-30T13:23:48.358Z,49.01
2022-08-30T13:26:20.425Z,50.16
2022-08-30T13:28:55.220Z,50.60
2022-08-30T13:31:23.454Z,50.93
2022-08-30T13:33:53.203Z,50.56
2022-08-30T13:36:22.866Z,52.44
2022-08-30T13:38:51.075Z,51.61
2022-08-30T13:41:20.316Z,50.21
2022-08-30T13:46:38.195Z,51.59
2022-08-30T13:49:43.003Z,50.02
2022-08-30T13:52:19.082Z,52.19
2022-08-30T13:54:46.302Z,48.95
2022-08-30T13:57:53.807Z,51.37
2022-08-30T14:00:12.937Z,51.89
2022-08-30T14:02:48.989Z,51.68
2022-08-30T14:05:46.766Z,52.22
2022-08-30T14:08:44.355Z,52.88
2022-08-30T14:10:58.496Z,52.35
2022-08-30T14:13:29.151Z,52.25
2022-08-30T14:18:47.207Z,54.25
2022-08-30T14:21:15.411Z,52.84
2022-08-30T14:23:43.339Z,53.58
2022-08-30T14:26:14.866Z,54.96
2022-08-30T14:28:45.540Z,56.07
2022-08-30T14:31:14.318Z,53.39
2022-08-30T14:33:42.677Z,54.27
2022-08-30T14:36:15.560Z,56.37
2022-08-30T14:38:43.764Z,52.80
2022-08-30T14:41:12.061Z,54.60
2022-08-30T14:43:41.188Z,53.90
2022-08-30T14:46:10.158Z,53.86
2022-08-30T14:48:39.559Z,54.58
2022-08-30T14:51:16.690Z,54.19
2022-08-30T14:53:45.765Z,54.96
2022-08-30T14:56:16.547Z,56.78
2022-08-30T14:58:44.552Z,57.51
2022-08-30T15:01:13.696Z,57.06
2022-08-30T15:03:42.658Z,56.33
2022-08-30T15:06:12.179Z,57.21
2022-08-30T15:08:41.967Z,56.12
2022-08-30T15:11:17.719Z,57.96
2022-08-30T15:13:45.781Z,56.20
2022-08-30T15:16:16.470Z,56.33
2022-08-30T15:18:44.526Z,56.51
2022-08-30T15:21:12.718Z,57.81
2022-08-30T15:23:44.685Z,55.74
2022-08-30T15:26:12.562Z,57.26
2022-08-30T15:28:40.429Z,55.55
2022-08-30T15:31:09.515Z,57.14
2022-08-30T15:33:38.085Z,55.43
2022-08-30T15:36:07.246Z,56.80
2022-08-30T15:38:35.780Z,56.99
2022-08-30T15:41:07.884Z,56.39
2022-08-30T15:43:36.026Z,55.89
2022-08-30T15:46:17.161Z,55.20
2022-08-30T15:48:46.028Z,53.71
2022-08-30T15:51:14.199Z,54.60
2022-08-30T15:53:42.271Z,53.68
2022-08-30T15:56:11.705Z,53.68
2022-08-30T15:58:39.981Z,54.76
2022-08-30T16:01:08.831Z,55.73
2022-08-30T16:03:40.369Z,55.36
2022-08-30T16:06:13.077Z,54.68
2022-08-30T16:08:41.728Z,55.76
2022-08-30T16:11:13.127Z,55.00
2022-08-30T16:13:42.283Z,54.60
2022-08-30T16:16:10.995Z,55.04
2022-08-30T16:18:39.784Z,56.71
2022-08-30T16:21:09.538Z,53.95
2022-08-30T16:23:39.776Z,53.04
2022-08-30T16:26:17.340Z,53.53
2022-08-30T16:28:45.604Z,55.49
2022-08-30T16:31:14.606Z,54.58
2022-08-30T16:33:44.797Z,54.43
2022-08-30T16:36:13.280Z,55.95
2022-08-30T16:38:41.632Z,55.74
2022-08-30T16:41:15.626Z,54.84
2022-08-30T16:43:47.193Z,56.09
2022-08-30T16:46:22.819Z,55.76
2022-08-30T16:48:57.231Z,55.20
2022-08-30T16:51:26.753Z,56.86
2022-08-30T16:53:55.827Z,56.79
2022-08-30T16:56:27.203Z,55.86
2022-08-30T16:59:01.204Z,55.74
2022-08-30T17:01:31.459Z,55.52
2022-08-30T17:04:00.383Z,55.20
2022-08-30T17:06:28.542Z,55.76
2022-08-30T17:08:57.156Z,56.91
2022-08-30T17:11:27.047Z,57.25
2022-08-30T17:13:55.645Z,55.44
2022-08-30T17:16:27.919Z,56.94
2022-08-30T17:18:59.909Z,56.69
2022-08-30T17:21:29.391Z,56.11
2022-08-30T17:24:01.820Z,55.91
2022-08-30T17:26:33.581Z,55.88
2022-08-30T17:29:01.910Z,55.59
2022-08-30T17:31:31.398Z,56.03
2022-08-30T17:34:03.461Z,55.88
2022-08-30T17:36:32.499Z,56.87
2022-08-30T17:39:00.704Z,55.42
2022-08-30T17:41:28.766Z,55.09
2022-08-30T17:43:58.146Z,55.92
2022-08-30T17:46:26.150Z,59.75
2022-08-30T17:49:01.311Z,56.89
2022-08-30T17:51:30.945Z,56.53
2022-08-30T17:53:59.129Z,57.53
2022-08-30T17:56:34.169Z,57.15
2022-08-30T17:59:07.925Z,57.20
2022-08-30T18:01:38.184Z,57.03
2022-08-30T18:04:06.826Z,58.57
2022-08-30T18:06:34.954Z,57.98
2022-08-30T18:09:03.394Z,58.35
2022-08-30T18:11:31.465Z,58.44
2022-08-30T18:13:59.512Z,59.20
2022-08-30T18:16:29.019Z,58.95
2022-08-30T18:18:57.659Z,61.03
2022-08-30T18:21:25.982Z,59.39
2022-08-30T18:23:56.519Z,59.61
2022-08-30T18:26:25.326Z,58.81
2022-08-30T18:28:53.440Z,59.11
2022-08-30T18:31:22.023Z,61.44
2022-08-30T18:33:51.441Z,60.07
2022-08-30T18:36:20.187Z,59.57
2022-08-30T18:38:48.212Z,59.49
2022-08-30T18:41:16.289Z,61.23
2022-08-30T18:43:45.251Z,59.85
2022-08-30T18:46:17.059Z,59.75
2022-08-30T18:48:46.957Z,61.54
2022-08-30T18:51:19.657Z,60.12
2022-08-30T18:53:49.514Z,60.93
2022-08-30T18:56:18.021Z,60.59
2022-08-30T18:58:47.512Z,60.53
2022-08-30T19:01:20.710Z,60.06
2022-08-30T19:03:50.737Z,60.79
2022-08-30T19:06:21.947Z,61.00
2022-08-30T19:08:51.017Z,61.40
2022-08-30T19:11:19.111Z,61.51
2022-08-30T19:13:47.065Z,61.76
2022-08-30T19:16:15.028Z,61.75
2022-08-30T19:18:43.194Z,61.98
2022-08-30T19:21:14.215Z,62.15
2022-08-30T19:23:43.591Z,61.75
2022-08-30T19:26:11.533Z,61.23
2022-08-30T19:28:39.783Z,62.51
2022-08-30T19:31:08.170Z,62.01
2022-08-30T19:33:36.173Z,62.03
2022-08-30T19:36:06.852Z,62.21
2022-08-30T19:38:36.339Z,62.32
2022-08-30T19:41:05.822Z,62.48
2022-08-30T19:43:33.741Z,63.59
2022-08-30T19:46:02.052Z,62.77
2022-08-30T19:48:32.445Z,62.78
2022-08-30T19:51:06.559Z,63.32
2022-08-30T19:53:35.223Z,62.77
2022-08-30T19:56:03.466Z,62.99
2022-08-30T19:58:33.211Z,64.25
2022-08-30T20:01:12.643Z,64.35
2022-08-30T20:03:49.293Z,63.55
2022-08-30T20:06:20.114Z,65.58
2022-08-30T20:08:48.317Z,64.20
2022-08-30T20:11:19.935Z,64.77
2022-08-30T20:13:49.987Z,64.54
2022-08-30T20:16:18.275Z,64.88
2022-08-30T20:18:48.875Z,64.10
2022-08-30T20:21:17.297Z,65.70
2022-08-30T20:23:45.427Z,64.88
2022-08-30T20:26:14.126Z,64.59
2022-08-30T20:28:42.717Z,63.44
2022-08-30T20:31:13.070Z,64.68
2022-08-30T20:33:41.352Z,65.79
2022-08-30T20:36:11.611Z,65.32
2022-08-30T20:38:40.510Z,65.49
2022-08-30T20:41:11.257Z,65.23
2022-08-30T20:43:39.871Z,65.06
2022-08-30T20:46:09.522Z,64.33
2022-08-30T20:48:39.856Z,64.42
2022-08-30T20:51:10.607Z,66.61
2022-08-30T20:53:39.009Z,63.82
2022-08-30T20:56:13.002Z,62.20
2022-08-30T20:58:41.477Z,62.63
2022-08-30T21:01:11.635Z,62.10
2022-08-30T21:03:42.010Z,62.12
2022-08-30T21:06:11.638Z,61.14
2022-08-30T21:08:40.070Z,60.35
2022-08-30T21:11:08.272Z,59.87
2022-08-30T21:13:36.492Z,59.25
2022-08-30T21:16:05.588Z,59.70
2022-08-30T21:18:35.497Z,61.65
2022-08-30T21:21:10.832Z,59.59
2022-08-30T21:23:38.779Z,61.70
2022-08-30T21:26:07.803Z,61.38
2022-08-30T21:28:35.998Z,60.14
2022-08-30T21:31:05.755Z,60.52
2022-08-30T21:33:33.679Z,61.47
2022-08-30T21:36:19.282Z,61.73
2022-08-30T21:38:48.541Z,61.44
2022-08-30T21:41:16.541Z,61.65
2022-08-30T21:43:44.461Z,61.44
2022-08-30T21:46:13.326Z,62.40
2022-08-30T21:48:41.284Z,60.69
2022-08-30T21:51:10.759Z,60.66
2022-08-30T21:53:38.768Z,62.92
2022-08-30T21:56:13.477Z,61.02
2022-08-30T21:58:45.580Z,61.30
2022-08-30T22:01:17.759Z,60.99
2022-08-30T22:03:46.657Z,60.57
2022-08-30T22:06:15.878Z,62.99
2022-08-30T22:08:46.021Z,60.41
2022-08-30T22:11:17.656Z,60.16
2022-08-30T22:13:48.060Z,60.65
2022-08-30T22:16:17.689Z,60.38
2022-08-30T22:18:45.935Z,61.77
2022-08-30T22:21:16.307Z,60.80
2022-08-30T22:23:45.034Z,60.83
2022-08-30T22:26:15.672Z,61.85
2022-08-30T22:28:43.839Z,60.88
2022-08-30T22:31:13.933Z,62.64
2022-08-30T22:33:42.953Z,60.82
2022-08-30T22:36:13.645Z,60.44
2022-08-30T22:38:42.167Z,61.25
2022-08-30T22:41:11.512Z,62.33
2022-08-30T22:43:41.275Z,62.30
2022-08-30T22:46:09.318Z,63.79
2022-08-30T22:48:38.497Z,62.95
2022-08-30T22:51:07.248Z,64.47
2022-08-30T22:53:35.519Z,63.15
2022-08-30T22:56:09.721Z,62.72
2022-08-30T22:58:37.927Z,62.85
2022-08-30T23:01:07.823Z,63.32
2022-08-30T23:03:36.438Z,63.60
2022-08-30T23:06:04.905Z,63.56
2022-08-30T23:08:32.808Z,63.41
2022-08-30T23:11:00.810Z,63.77
2022-08-30T23:13:28.969Z,64.49
2022-08-30T23:15:57.023Z,63.94
2022-08-30T23:18:26.549Z,65.41
2022-08-30T23:20:54.784Z,63.98
2022-08-30T23:23:40.034Z,65.06
2022-08-30T23:26:25.609Z,66.18
2022-08-30T23:29:10.713Z,65.73
2022-08-30T23:31:56.050Z,65.42
2022-08-30T23:34:43.549Z,66.26
2022-08-30T23:37:29.151Z,66.75
2022-08-30T23:40:14.582Z,66.87
2022-08-30T23:43:00.231Z,65.82
2022-08-30T23:45:46.141Z,66.14
2022-08-30T23:48:32.150Z,65.93
2022-08-30T23:51:21.888Z,66.28
2022-08-30T23:54:07.499Z,66.26
2022-08-30T23:56:53.158Z,67.86
2022-08-30T23:59:38.422Z,66.67
